sensor_id;sensor_type;location;lat;lon;timestamp;pressure;altitude;pressure_sealevel;temperature;humidity
61676;BME280;47574;52.090;5.244;2023-02-10T00:03:03;103529.0;;;8.0;53.32
61676;BME280;47574;52.090;5.244;2023-02-10T00:04:39;103529.0;;;8.07;52.15
61676;BME280;47574;52.090;5.244;2023-02-10T00:06:16;103528.0;;;8.06;51.59
61676;BME280;47574;52.090;5.244;2023-02-10T00:09:30;103525.0;;;8.06;51.37
61676;BME280;47574;52.090;5.244;2023-02-10T00:11:09;103527.0;;;8.02;51.23
61676;BME280;47574;52.090;5.244;2023-02-10T00:12:46;103530.0;;;7.69;52.47
61676;BME280;47574;52.090;5.244;2023-02-10T00:14:23;103528.0;;;7.4;53.78
61676;BME280;47574;52.090;5.244;2023-02-10T00:17:38;103528.0;;;7.25;54.3
61676;BME280;47574;52.090;5.244;2023-02-10T00:19:14;103529.0;;;7.12;54.6
61676;BME280;47574;52.090;5.244;2023-02-10T00:20:50;103532.0;;;6.99;55.08
61676;BME280;47574;52.090;5.244;2023-02-10T00:24:04;103530.0;;;7.02;54.87
61676;BME280;47574;52.090;5.244;2023-02-10T00:25:41;103530.0;;;7.22;54.16
61676;BME280;47574;52.090;5.244;2023-02-10T00:27:23;103530.0;;;7.21;55.04
61676;BME280;47574;52.090;5.244;2023-02-10T00:28:59;103530.0;;;7.57;54.15
61676;BME280;47574;52.090;5.244;2023-02-10T00:32:13;103527.0;;;7.2;54.86
61676;BME280;47574;52.090;5.244;2023-02-10T00:33:49;103530.0;;;7.16;55.01
61676;BME280;47574;52.090;5.244;2023-02-10T00:35:25;103528.0;;;7.22;54.91
61676;BME280;47574;52.090;5.244;2023-02-10T00:38:39;103531.0;;;7.19;54.91
61676;BME280;47574;52.090;5.244;2023-02-10T00:40:16;103529.0;;;7.52;53.82
61676;BME280;47574;52.090;5.244;2023-02-10T00:41:53;103533.0;;;7.57;53.72
61676;BME280;47574;52.090;5.244;2023-02-10T00:43:29;103530.0;;;7.78;53.08
61676;BME280;47574;52.090;5.244;2023-02-10T00:46:43;103532.0;;;8.06;52.49
61676;BME280;47574;52.090;5.244;2023-02-10T00:48:20;103533.0;;;7.73;52.81
61676;BME280;47574;52.090;5.244;2023-02-10T00:49:56;103530.0;;;7.29;53.78
61676;BME280;47574;52.090;5.244;2023-02-10T00:53:09;103531.0;;;7.12;54.31
61676;BME280;47574;52.090;5.244;2023-02-10T00:54:45;103532.0;;;6.9;54.95
61676;BME280;47574;52.090;5.244;2023-02-10T00:56:21;103533.0;;;6.93;54.83
61676;BME280;47574;52.090;5.244;2023-02-10T00:59:34;103532.0;;;7.05;54.45
61676;BME280;47574;52.090;5.244;2023-02-10T01:01:10;103538.00000000001;;;7.36;53.59
61676;BME280;47574;52.090;5.244;2023-02-10T01:02:47;103542.0;;;7.78;52.48
61676;BME280;47574;52.090;5.244;2023-02-10T01:06:00;103540.00000000001;;;7.76;52.31
61676;BME280;47574;52.090;5.244;2023-02-10T01:07:36;103534.99999999999;;;7.74;52.19
61676;BME280;47574;52.090;5.244;2023-02-10T01:09:12;103533.0;;;7.33;52.93
61676;BME280;47574;52.090;5.244;2023-02-10T01:10:48;103533.99999999999;;;7.59;52.57
61676;BME280;47574;52.090;5.244;2023-02-10T01:14:01;103533.0;;;7.45;53.47
61676;BME280;47574;52.090;5.244;2023-02-10T01:15:41;103538.00000000001;;;7.45;53.55
61676;BME280;47574;52.090;5.244;2023-02-10T01:17:17;103534.99999999999;;;7.13;54.94
61676;BME280;47574;52.090;5.244;2023-02-10T01:20:30;103542.0;;;7.13;55.49
61676;BME280;47574;52.090;5.244;2023-02-10T01:22:07;103544.0;;;6.92;55.47
61676;BME280;47574;52.090;5.244;2023-02-10T01:23:44;103545.0;;;6.9;55.46
61676;BME280;47574;52.090;5.244;2023-02-10T01:25:20;103550.0;;;6.76;55.78
61676;BME280;47574;52.090;5.244;2023-02-10T01:28:33;103555.0;;;7.22;54.67
61676;BME280;47574;52.090;5.244;2023-02-10T01:30:11;103553.0;;;6.93;55.17
61676;BME280;47574;52.090;5.244;2023-02-10T01:31:48;103555.0;;;7.06;54.72
61676;BME280;47574;52.090;5.244;2023-02-10T01:35:00;103557.0;;;6.87;54.95
61676;BME280;47574;52.090;5.244;2023-02-10T01:36:36;103563.00000000001;;;6.72;55.5
61676;BME280;47574;52.090;5.244;2023-02-10T01:38:12;103558.99999999999;;;7.41;53.83
61676;BME280;47574;52.090;5.244;2023-02-10T01:41:25;103556.0;;;7.26;54.09
61676;BME280;47574;52.090;5.244;2023-02-10T01:43:10;103554.0;;;7.07;54.24
61676;BME280;47574;52.090;5.244;2023-02-10T01:45:11;103557.0;;;7.27;53.88
61676;BME280;47574;52.090;5.244;2023-02-10T01:47:07;103558.99999999999;;;7.65;52.91
61676;BME280;47574;52.090;5.244;2023-02-10T01:48:44;103561.99999999999;;;7.62;52.8
61676;BME280;47574;52.090;5.244;2023-02-10T01:52:03;103557.0;;;7.47;53.03
61676;BME280;47574;52.090;5.244;2023-02-10T01:53:43;103559.99999999999;;;7.45;53.04
61676;BME280;47574;52.090;5.244;2023-02-10T01:55:23;103558.0;;;7.36;53.25
61676;BME280;47574;52.090;5.244;2023-02-10T01:57:01;103559.99999999999;;;7.46;53.08
61676;BME280;47574;52.090;5.244;2023-02-10T02:00:15;103563.00000000001;;;7.55;52.51
61676;BME280;47574;52.090;5.244;2023-02-10T02:01:51;103558.99999999999;;;7.44;52.89
61676;BME280;47574;52.090;5.244;2023-02-10T02:03:27;103558.0;;;7.33;53.16
61676;BME280;47574;52.090;5.244;2023-02-10T02:06:43;103557.0;;;7.26;53.25
61676;BME280;47574;52.090;5.244;2023-02-10T02:08:23;103561.99999999999;;;7.04;54.27
61676;BME280;47574;52.090;5.244;2023-02-10T02:10:02;103566.00000000001;;;7.03;54.69
61676;BME280;47574;52.090;5.244;2023-02-10T02:11:49;103563.00000000001;;;6.94;54.77
61676;BME280;47574;52.090;5.244;2023-02-10T02:13:43;103564.00000000001;;;7.39;53.46
61676;BME280;47574;52.090;5.244;2023-02-10T02:17:15;103567.0;;;7.25;53.41
61676;BME280;47574;52.090;5.244;2023-02-10T02:19:01;103567.0;;;6.97;54.4
61676;BME280;47574;52.090;5.244;2023-02-10T02:24:41;103564.00000000001;;;7.01;54.02
61676;BME280;47574;52.090;5.244;2023-02-10T02:27:03;103563.00000000001;;;7.45;53.1
61676;BME280;47574;52.090;5.244;2023-02-10T02:30:00;103568.0;;;7.64;52.72
61676;BME280;47574;52.090;5.244;2023-02-10T02:31:52;103567.0;;;7.66;52.37
61676;BME280;47574;52.090;5.244;2023-02-10T02:33:36;103561.99999999999;;;7.54;52.32
61676;BME280;47574;52.090;5.244;2023-02-10T02:35:19;103559.99999999999;;;7.47;52.35
61676;BME280;47574;52.090;5.244;2023-02-10T02:37:03;103565.00000000001;;;7.31;52.83
61676;BME280;47574;52.090;5.244;2023-02-10T02:38:42;103566.00000000001;;;7.1;53.22
61676;BME280;47574;52.090;5.244;2023-02-10T02:42:11;103570.0;;;7.26;52.58
61676;BME280;47574;52.090;5.244;2023-02-10T02:43:50;103567.0;;;7.18;52.68
61676;BME280;47574;52.090;5.244;2023-02-10T02:45:31;103569.0;;;7.29;52.67
61676;BME280;47574;52.090;5.244;2023-02-10T02:47:21;103576.0;;;7.32;52.78
61676;BME280;47574;52.090;5.244;2023-02-10T02:49:10;103578.0;;;7.48;52.32
61676;BME280;47574;52.090;5.244;2023-02-10T02:52:42;103579.0;;;7.37;52.21
61676;BME280;47574;52.090;5.244;2023-02-10T02:54:31;103577.0;;;7.37;52.26
61676;BME280;47574;52.090;5.244;2023-02-10T02:56:22;103576.0;;;7.33;52.28
61676;BME280;47574;52.090;5.244;2023-02-10T02:58:11;103580.0;;;6.99;52.79
61676;BME280;47574;52.090;5.244;2023-02-10T02:59:54;103575.0;;;7.03;52.73
61676;BME280;47574;52.090;5.244;2023-02-10T03:01:39;103579.0;;;7.11;52.9
61676;BME280;47574;52.090;5.244;2023-02-10T03:04:55;103577.0;;;7.38;52.03
61676;BME280;47574;52.090;5.244;2023-02-10T03:06:32;103576.0;;;7.43;52.1
61676;BME280;47574;52.090;5.244;2023-02-10T03:08:08;103572.0;;;7.52;51.76
61676;BME280;47574;52.090;5.244;2023-02-10T03:11:21;103567.0;;;7.59;51.77
61676;BME280;47574;52.090;5.244;2023-02-10T03:12:58;103568.0;;;7.62;51.58
61676;BME280;47574;52.090;5.244;2023-02-10T03:14:34;103568.0;;;7.61;51.47
61676;BME280;47574;52.090;5.244;2023-02-10T03:17:46;103573.0;;;7.42;52.1
61676;BME280;47574;52.090;5.244;2023-02-10T03:19:23;103570.0;;;7.47;52.0
61676;BME280;47574;52.090;5.244;2023-02-10T03:20:58;103573.0;;;7.54;51.24
61676;BME280;47574;52.090;5.244;2023-02-10T03:22:34;103571.0;;;7.18;51.95
61676;BME280;47574;52.090;5.244;2023-02-10T03:25:47;103567.0;;;7.08;52.36
61676;BME280;47574;52.090;5.244;2023-02-10T03:27:23;103574.0;;;7.06;52.19
61676;BME280;47574;52.090;5.244;2023-02-10T03:29:00;103574.0;;;6.84;52.45
61676;BME280;47574;52.090;5.244;2023-02-10T03:32:15;103574.0;;;6.92;52.51
61676;BME280;47574;52.090;5.244;2023-02-10T03:33:51;103573.0;;;7.06;52.3
61676;BME280;47574;52.090;5.244;2023-02-10T03:35:27;103570.0;;;7.15;51.65
61676;BME280;47574;52.090;5.244;2023-02-10T03:38:39;103577.0;;;7.26;51.59
61676;BME280;47574;52.090;5.244;2023-02-10T03:40:16;103579.0;;;7.39;51.33
61676;BME280;47574;52.090;5.244;2023-02-10T03:41:53;103578.0;;;7.03;52.0
61676;BME280;47574;52.090;5.244;2023-02-10T03:43:30;103584.99999999999;;;6.89;52.4
61676;BME280;47574;52.090;5.244;2023-02-10T03:46:43;103582.0;;;7.02;52.17
61676;BME280;47574;52.090;5.244;2023-02-10T03:48:19;103582.0;;;7.03;51.96
61676;BME280;47574;52.090;5.244;2023-02-10T03:49:55;103583.99999999999;;;7.09;51.54
61676;BME280;47574;52.090;5.244;2023-02-10T03:53:08;103578.0;;;7.17;51.64
61676;BME280;47574;52.090;5.244;2023-02-10T03:54:44;103581.0;;;6.97;52.08
61676;BME280;47574;52.090;5.244;2023-02-10T03:56:20;103580.0;;;6.94;52.43
61676;BME280;47574;52.090;5.244;2023-02-10T03:59:33;103577.0;;;6.84;52.89
61676;BME280;47574;52.090;5.244;2023-02-10T04:01:11;103577.0;;;6.94;52.25
61676;BME280;47574;52.090;5.244;2023-02-10T04:02:49;103583.99999999999;;;6.71;53.12
61676;BME280;47574;52.090;5.244;2023-02-10T04:07:37;103581.0;;;6.85;52.15
61676;BME280;47574;52.090;5.244;2023-02-10T04:09:14;103588.00000000001;;;6.81;52.44
61676;BME280;47574;52.090;5.244;2023-02-10T04:10:50;103588.00000000001;;;7.27;52.09
61676;BME280;47574;52.090;5.244;2023-02-10T04:14:03;103582.0;;;7.12;51.83
61676;BME280;47574;52.090;5.244;2023-02-10T04:15:39;103586.99999999999;;;7.06;51.93
61676;BME280;47574;52.090;5.244;2023-02-10T04:17:15;103583.0;;;7.14;51.73
61676;BME280;47574;52.090;5.244;2023-02-10T04:20:27;103583.99999999999;;;7.02;52.06
61676;BME280;47574;52.090;5.244;2023-02-10T04:22:04;103592.0;;;7.0;52.03
61676;BME280;47574;52.090;5.244;2023-02-10T04:23:40;103594.0;;;6.99;51.91
61676;BME280;47574;52.090;5.244;2023-02-10T04:25:16;103598.0;;;6.87;52.21
61676;BME280;47574;52.090;5.244;2023-02-10T04:28:29;103598.0;;;6.95;52.01
61676;BME280;47574;52.090;5.244;2023-02-10T04:30:06;103599.0;;;6.86;52.56
61676;BME280;47574;52.090;5.244;2023-02-10T04:31:43;103598.0;;;6.98;52.13
61676;BME280;47574;52.090;5.244;2023-02-10T04:34:57;103602.0;;;6.86;52.08
61676;BME280;47574;52.090;5.244;2023-02-10T04:36:33;103599.0;;;7.03;51.75
61676;BME280;47574;52.090;5.244;2023-02-10T04:38:09;103600.0;;;7.13;51.61
61676;BME280;47574;52.090;5.244;2023-02-10T04:41:23;103603.0;;;6.77;52.71
61676;BME280;47574;52.090;5.244;2023-02-10T04:42:59;103613.00000000001;;;6.65;52.8
61676;BME280;47574;52.090;5.244;2023-02-10T04:44:35;103613.00000000001;;;6.74;52.37
61676;BME280;47574;52.090;5.244;2023-02-10T04:46:12;103608.99999999999;;;6.78;52.05
61676;BME280;47574;52.090;5.244;2023-02-10T04:49:26;103611.99999999999;;;6.7;51.97
61676;BME280;47574;52.090;5.244;2023-02-10T04:51:06;103602.0;;;6.76;52.14
61676;BME280;47574;52.090;5.244;2023-02-10T04:52:43;103596.0;;;6.88;51.86
61676;BME280;47574;52.090;5.244;2023-02-10T04:55:56;103591.00000000001;;;7.15;51.5
61676;BME280;47574;52.090;5.244;2023-02-10T04:57:32;103583.99999999999;;;7.04;51.51
61676;BME280;47574;52.090;5.244;2023-02-10T04:59:08;103582.0;;;7.13;51.29
61676;BME280;47574;52.090;5.244;2023-02-10T05:02:21;103575.0;;;7.31;51.52
61676;BME280;47574;52.090;5.244;2023-02-10T05:03:57;103581.0;;;7.19;51.57
61676;BME280;47574;52.090;5.244;2023-02-10T05:05:33;103579.0;;;7.22;51.27
61676;BME280;47574;52.090;5.244;2023-02-10T05:07:11;103582.0;;;7.16;51.14
61676;BME280;47574;52.090;5.244;2023-02-10T05:10:27;103582.0;;;6.97;51.35
61676;BME280;47574;52.090;5.244;2023-02-10T05:12:04;103580.0;;;6.96;51.71
61676;BME280;47574;52.090;5.244;2023-02-10T05:13:40;103579.0;;;7.02;51.69
61676;BME280;47574;52.090;5.244;2023-02-10T05:16:54;103589.00000000001;;;6.92;51.81
61676;BME280;47574;52.090;5.244;2023-02-10T05:18:30;103590.00000000001;;;6.95;51.7
61676;BME280;47574;52.090;5.244;2023-02-10T05:20:08;103591.00000000001;;;6.77;52.36
61676;BME280;47574;52.090;5.244;2023-02-10T05:21:45;103593.0;;;6.84;52.03
61676;BME280;47574;52.090;5.244;2023-02-10T05:24:58;103590.00000000001;;;6.55;52.87
61676;BME280;47574;52.090;5.244;2023-02-10T05:26:34;103586.99999999999;;;6.68;52.69
61676;BME280;47574;52.090;5.244;2023-02-10T05:28:10;103593.0;;;6.55;52.87
61676;BME280;47574;52.090;5.244;2023-02-10T05:31:23;103591.00000000001;;;6.82;52.54
61676;BME280;47574;52.090;5.244;2023-02-10T05:32:59;103592.0;;;6.9;52.33
61676;BME280;47574;52.090;5.244;2023-02-10T05:34:35;103598.0;;;6.84;52.58
61676;BME280;47574;52.090;5.244;2023-02-10T05:37:47;103592.0;;;6.95;52.45
61676;BME280;47574;52.090;5.244;2023-02-10T05:39:23;103596.0;;;6.96;52.28
61676;BME280;47574;52.090;5.244;2023-02-10T05:41:00;103599.0;;;6.89;52.19
61676;BME280;47574;52.090;5.244;2023-02-10T05:44:13;103599.0;;;6.77;52.73
61676;BME280;47574;52.090;5.244;2023-02-10T05:45:49;103601.0;;;7.18;52.11
61676;BME280;47574;52.090;5.244;2023-02-10T05:47:25;103599.0;;;7.37;51.54
61676;BME280;47574;52.090;5.244;2023-02-10T05:49:01;103588.00000000001;;;7.32;51.61
61676;BME280;47574;52.090;5.244;2023-02-10T05:52:16;103588.00000000001;;;7.46;51.59
61676;BME280;47574;52.090;5.244;2023-02-10T05:53:53;103586.99999999999;;;7.47;51.56
61676;BME280;47574;52.090;5.244;2023-02-10T05:55:30;103580.0;;;7.33;51.89
61676;BME280;47574;52.090;5.244;2023-02-10T05:58:43;103581.0;;;7.45;51.77
61676;BME280;47574;52.090;5.244;2023-02-10T06:00:20;103581.0;;;7.46;51.75
61676;BME280;47574;52.090;5.244;2023-02-10T06:01:56;103580.0;;;7.41;52.11
61676;BME280;47574;52.090;5.244;2023-02-10T06:05:08;103583.99999999999;;;7.46;52.34
61676;BME280;47574;52.090;5.244;2023-02-10T06:06:46;103588.00000000001;;;7.49;52.25
61676;BME280;47574;52.090;5.244;2023-02-10T06:08:23;103592.0;;;7.53;52.35
61676;BME280;47574;52.090;5.244;2023-02-10T06:09:59;103592.0;;;7.63;52.48
61676;BME280;47574;52.090;5.244;2023-02-10T06:13:12;103591.00000000001;;;7.67;52.35
61676;BME280;47574;52.090;5.244;2023-02-10T06:14:48;103591.00000000001;;;7.55;52.74
61676;BME280;47574;52.090;5.244;2023-02-10T06:16:25;103593.0;;;7.52;52.66
61676;BME280;47574;52.090;5.244;2023-02-10T06:19:38;103597.0;;;7.6;52.69
61676;BME280;47574;52.090;5.244;2023-02-10T06:21:16;103602.0;;;7.63;52.57
61676;BME280;47574;52.090;5.244;2023-02-10T06:22:52;103606.0;;;7.72;52.55
61676;BME280;47574;52.090;5.244;2023-02-10T06:26:04;103608.0;;;7.71;52.82
61676;BME280;47574;52.090;5.244;2023-02-10T06:27:40;103608.99999999999;;;7.65;53.11
61676;BME280;47574;52.090;5.244;2023-02-10T06:29:16;103611.99999999999;;;7.67;53.26
61676;BME280;47574;52.090;5.244;2023-02-10T06:30:53;103611.99999999999;;;7.68;53.34
61676;BME280;47574;52.090;5.244;2023-02-10T06:34:08;103615.00000000001;;;7.69;53.68
61676;BME280;47574;52.090;5.244;2023-02-10T06:35:45;103617.0;;;7.71;53.58
61676;BME280;47574;52.090;5.244;2023-02-10T06:37:23;103613.00000000001;;;7.72;53.72
61676;BME280;47574;52.090;5.244;2023-02-10T06:40:36;103613.00000000001;;;7.58;54.09
61676;BME280;47574;52.090;5.244;2023-02-10T06:42:12;103618.0;;;7.7;54.17
61676;BME280;47574;52.090;5.244;2023-02-10T06:43:49;103616.00000000001;;;7.83;53.78
61676;BME280;47574;52.090;5.244;2023-02-10T06:47:00;103617.0;;;7.8;53.82
61676;BME280;47574;52.090;5.244;2023-02-10T06:48:36;103616.00000000001;;;7.8;53.97
61676;BME280;47574;52.090;5.244;2023-02-10T06:50:13;103615.00000000001;;;7.62;54.21
61676;BME280;47574;52.090;5.244;2023-02-10T06:51:50;103616.00000000001;;;7.68;54.24
61676;BME280;47574;52.090;5.244;2023-02-10T06:55:03;103616.00000000001;;;7.62;54.35
61676;BME280;47574;52.090;5.244;2023-02-10T06:56:39;103611.99999999999;;;7.74;54.12
61676;BME280;47574;52.090;5.244;2023-02-10T06:58:16;103617.0;;;7.69;54.11
61676;BME280;47574;52.090;5.244;2023-02-10T07:01:29;103625.0;;;7.87;53.76
61676;BME280;47574;52.090;5.244;2023-02-10T07:03:05;103626.0;;;7.57;54.52
61676;BME280;47574;52.090;5.244;2023-02-10T07:04:41;103625.0;;;7.8;53.83
61676;BME280;47574;52.090;5.244;2023-02-10T07:07:55;103628.0;;;7.79;53.81
61676;BME280;47574;52.090;5.244;2023-02-10T07:09:32;103627.0;;;7.88;53.47
61676;BME280;47574;52.090;5.244;2023-02-10T07:11:08;103624.0;;;7.86;53.63
61676;BME280;47574;52.090;5.244;2023-02-10T07:12:44;103627.0;;;7.78;53.7
61676;BME280;47574;52.090;5.244;2023-02-10T07:15:56;103622.0;;;7.86;53.48
61676;BME280;47574;52.090;5.244;2023-02-10T07:17:33;103621.0;;;7.84;53.46
61676;BME280;47574;52.090;5.244;2023-02-10T07:19:09;103626.0;;;7.72;53.59
61676;BME280;47574;52.090;5.244;2023-02-10T07:22:21;103626.0;;;7.72;53.53
61676;BME280;47574;52.090;5.244;2023-02-10T07:23:57;103623.0;;;7.3;54.2
61676;BME280;47574;52.090;5.244;2023-02-10T07:25:33;103626.0;;;7.57;53.79
61676;BME280;47574;52.090;5.244;2023-02-10T07:28:46;103634.99999999999;;;7.55;53.67
61676;BME280;47574;52.090;5.244;2023-02-10T07:30:23;103634.99999999999;;;7.52;53.77
61676;BME280;47574;52.090;5.244;2023-02-10T07:32:00;103634.99999999999;;;7.68;53.4
61676;BME280;47574;52.090;5.244;2023-02-10T07:33:36;103633.99999999999;;;7.66;53.37
61676;BME280;47574;52.090;5.244;2023-02-10T07:36:53;103644.0;;;7.65;53.39
61676;BME280;47574;52.090;5.244;2023-02-10T07:38:30;103653.0;;;7.62;53.5
61676;BME280;47574;52.090;5.244;2023-02-10T07:40:08;103657.0;;;7.73;53.46
61676;BME280;47574;52.090;5.244;2023-02-10T07:43:21;103663.00000000001;;;7.68;53.39
61676;BME280;47574;52.090;5.244;2023-02-10T07:44:57;103667.0;;;7.66;53.46
61676;BME280;47574;52.090;5.244;2023-02-10T07:46:34;103673.0;;;7.62;53.65
61676;BME280;47574;52.090;5.244;2023-02-10T07:49:47;103670.0;;;7.69;53.49
61676;BME280;47574;52.090;5.244;2023-02-10T07:51:24;103657.0;;;7.87;52.93
61676;BME280;47574;52.090;5.244;2023-02-10T07:53:00;103656.0;;;7.81;53.2
61676;BME280;47574;52.090;5.244;2023-02-10T07:54:36;103668.0;;;7.76;53.29
61676;BME280;47574;52.090;5.244;2023-02-10T07:57:51;103679.0;;;7.79;53.18
61676;BME280;47574;52.090;5.244;2023-02-10T07:59:28;103683.0;;;7.79;53.19
61676;BME280;47574;52.090;5.244;2023-02-10T08:01:06;103676.0;;;7.76;53.03
61676;BME280;47574;52.090;5.244;2023-02-10T08:04:19;103673.0;;;7.66;53.38
61676;BME280;47574;52.090;5.244;2023-02-10T08:05:55;103674.0;;;7.82;53.16
61676;BME280;47574;52.090;5.244;2023-02-10T08:07:32;103668.0;;;7.75;53.11
61676;BME280;47574;52.090;5.244;2023-02-10T08:09:08;103664.00000000001;;;7.72;53.27
61676;BME280;47574;52.090;5.244;2023-02-10T08:12:23;103667.0;;;7.78;53.28
61676;BME280;47574;52.090;5.244;2023-02-10T08:14:00;103675.0;;;7.83;53.28
61676;BME280;47574;52.090;5.244;2023-02-10T08:15:38;103676.0;;;7.72;53.33
61676;BME280;47574;52.090;5.244;2023-02-10T08:18:51;103669.0;;;7.79;53.34
61676;BME280;47574;52.090;5.244;2023-02-10T08:20:27;103670.0;;;7.56;53.8
61676;BME280;47574;52.090;5.244;2023-02-10T08:22:03;103667.0;;;7.78;53.61
61676;BME280;47574;52.090;5.244;2023-02-10T08:25:16;103663.00000000001;;;7.81;53.49
61676;BME280;47574;52.090;5.244;2023-02-10T08:26:52;103658.99999999999;;;7.69;53.79
61676;BME280;47574;52.090;5.244;2023-02-10T08:28:29;103664.00000000001;;;7.81;53.5
61676;BME280;47574;52.090;5.244;2023-02-10T08:30:06;103667.0;;;7.97;53.29
61676;BME280;47574;52.090;5.244;2023-02-10T08:33:19;103667.0;;;7.83;53.64
61676;BME280;47574;52.090;5.244;2023-02-10T08:34:55;103669.0;;;8.05;53.1
61676;BME280;47574;52.090;5.244;2023-02-10T08:36:31;103668.0;;;7.91;53.3
61676;BME280;47574;52.090;5.244;2023-02-10T08:39:45;103665.00000000001;;;7.99;53.28
61676;BME280;47574;52.090;5.244;2023-02-10T08:41:21;103665.00000000001;;;7.97;53.18
61676;BME280;47574;52.090;5.244;2023-02-10T08:42:57;103668.0;;;7.85;53.47
61676;BME280;47574;52.090;5.244;2023-02-10T08:46:11;103675.0;;;7.76;53.72
61676;BME280;47574;52.090;5.244;2023-02-10T08:47:48;103674.0;;;7.58;54.05
61676;BME280;47574;52.090;5.244;2023-02-10T08:49:25;103680.0;;;7.85;53.78
61676;BME280;47574;52.090;5.244;2023-02-10T08:51:06;103678.0;;;8.06;53.43
61676;BME280;47574;52.090;5.244;2023-02-10T08:54:20;103681.0;;;8.05;53.58
61676;BME280;47574;52.090;5.244;2023-02-10T08:55:59;103675.0;;;7.7;54.24
61676;BME280;47574;52.090;5.244;2023-02-10T08:57:38;103678.0;;;7.94;53.91
61676;BME280;47574;52.090;5.244;2023-02-10T09:00:52;103675.0;;;7.74;54.46
61676;BME280;47574;52.090;5.244;2023-02-10T09:02:30;103677.0;;;7.85;54.35
61676;BME280;47574;52.090;5.244;2023-02-10T09:04:07;103679.0;;;8.02;54.12
61676;BME280;47574;52.090;5.244;2023-02-10T09:05:45;103686.99999999999;;;8.06;54.05
61676;BME280;47574;52.090;5.244;2023-02-10T09:09:00;103688.00000000001;;;8.06;54.2
61676;BME280;47574;52.090;5.244;2023-02-10T09:10:38;103686.99999999999;;;8.28;53.64
61676;BME280;47574;52.090;5.244;2023-02-10T09:12:14;103690.00000000001;;;7.98;54.35
61676;BME280;47574;52.090;5.244;2023-02-10T09:15:28;103686.99999999999;;;8.06;54.38
61676;BME280;47574;52.090;5.244;2023-02-10T09:17:04;103689.00000000001;;;8.03;54.52
61676;BME280;47574;52.090;5.244;2023-02-10T09:18:41;103691.00000000001;;;8.18;54.23
61676;BME280;47574;52.090;5.244;2023-02-10T09:20:17;103692.0;;;8.18;54.42
61676;BME280;47574;52.090;5.244;2023-02-10T09:23:32;103693.0;;;8.19;54.28
61676;BME280;47574;52.090;5.244;2023-02-10T09:25:08;103693.0;;;8.06;54.82
61676;BME280;47574;52.090;5.244;2023-02-10T09:26:44;103695.0;;;8.17;54.62
61676;BME280;47574;52.090;5.244;2023-02-10T09:29:59;103697.0;;;8.06;55.01
61676;BME280;47574;52.090;5.244;2023-02-10T09:31:36;103701.0;;;8.36;54.42
61676;BME280;47574;52.090;5.244;2023-02-10T09:33:12;103698.0;;;8.48;54.22
61676;BME280;47574;52.090;5.244;2023-02-10T09:36:24;103693.0;;;8.43;54.23
61676;BME280;47574;52.090;5.244;2023-02-10T09:38:00;103702.0;;;8.47;54.45
61676;BME280;47574;52.090;5.244;2023-02-10T09:39:38;103699.0;;;8.48;54.46
61676;BME280;47574;52.090;5.244;2023-02-10T09:41:23;103703.0;;;8.65;54.08
61676;BME280;47574;52.090;5.244;2023-02-10T09:45:09;103704.0;;;8.51;54.63
61676;BME280;47574;52.090;5.244;2023-02-10T09:47:00;103706.0;;;8.51;54.56
61676;BME280;47574;52.090;5.244;2023-02-10T09:49:04;103705.0;;;8.75;54.14
61676;BME280;47574;52.090;5.244;2023-02-10T09:50:55;103704.0;;;8.75;54.35
61676;BME280;47574;52.090;5.244;2023-02-10T09:52:44;103704.0;;;8.76;54.37
61676;BME280;47574;52.090;5.244;2023-02-10T09:54:31;103703.0;;;9.03;53.81
61676;BME280;47574;52.090;5.244;2023-02-10T09:56:14;103705.0;;;9.02;53.76
61676;BME280;47574;52.090;5.244;2023-02-10T09:59:36;103702.0;;;9.14;53.63
61676;BME280;47574;52.090;5.244;2023-02-10T10:01:16;103698.0;;;9.1;53.63
61676;BME280;47574;52.090;5.244;2023-02-10T10:02:57;103698.0;;;9.08;53.78
61676;BME280;47574;52.090;5.244;2023-02-10T10:04:37;103696.0;;;9.09;53.84
61676;BME280;47574;52.090;5.244;2023-02-10T10:07:58;103700.0;;;9.1;53.99
61676;BME280;47574;52.090;5.244;2023-02-10T10:09:40;103693.0;;;9.1;54.06
61676;BME280;47574;52.090;5.244;2023-02-10T10:11:24;103695.0;;;9.26;53.66
61676;BME280;47574;52.090;5.244;2023-02-10T10:13:02;103701.0;;;9.35;53.42
61676;BME280;47574;52.090;5.244;2023-02-10T10:14:40;103701.0;;;9.48;53.42
61676;BME280;47574;52.090;5.244;2023-02-10T10:18:10;103703.0;;;9.26;53.84
61676;BME280;47574;52.090;5.244;2023-02-10T10:20:02;103702.0;;;9.46;53.45
61676;BME280;47574;52.090;5.244;2023-02-10T10:21:51;103697.0;;;9.53;53.36
61676;BME280;47574;52.090;5.244;2023-02-10T10:23:45;103686.99999999999;;;9.51;53.3
61676;BME280;47574;52.090;5.244;2023-02-10T10:25:47;103680.0;;;9.47;53.25
61676;BME280;47574;52.090;5.244;2023-02-10T10:28:25;103678.0;;;9.58;53.34
61676;BME280;47574;52.090;5.244;2023-02-10T10:30:09;103674.0;;;9.72;52.99
61676;BME280;47574;52.090;5.244;2023-02-10T10:31:53;103680.0;;;9.73;53.13
61676;BME280;47574;52.090;5.244;2023-02-10T10:33:38;103683.0;;;9.85;52.83
61676;BME280;47574;52.090;5.244;2023-02-10T10:36:58;103682.0;;;9.86;52.77
61676;BME280;47574;52.090;5.244;2023-02-10T10:38:40;103672.0;;;9.88;52.67
61676;BME280;47574;52.090;5.244;2023-02-10T10:40:26;103668.0;;;10.06;52.41
61676;BME280;47574;52.090;5.244;2023-02-10T10:42:12;103665.00000000001;;;9.99;52.54
61676;BME280;47574;52.090;5.244;2023-02-10T10:45:35;103669.0;;;9.97;52.71
61676;BME280;47574;52.090;5.244;2023-02-10T10:47:20;103670.0;;;10.3;51.97
61676;BME280;47574;52.090;5.244;2023-02-10T10:49:01;103667.0;;;10.05;52.19
61676;BME280;47574;52.090;5.244;2023-02-10T10:50:38;103667.0;;;10.14;52.05
61676;BME280;47574;52.090;5.244;2023-02-10T10:54:05;103671.0;;;10.24;51.92
61676;BME280;47574;52.090;5.244;2023-02-10T10:55:44;103678.0;;;10.62;51.13
61676;BME280;47574;52.090;5.244;2023-02-10T10:57:25;103676.0;;;10.41;51.57
61676;BME280;47574;52.090;5.244;2023-02-10T10:59:12;103671.0;;;10.22;52.15